createdAt,value
2023-01-29T00:02:08.156Z,6.20
2023-01-29T00:04:35.059Z,6.19
2023-01-29T00:07:01.833Z,6.19
2023-01-29T00:09:29.191Z,6.21
2023-01-29T00:11:56.111Z,6.19
2023-01-29T00:14:22.901Z,6.20
2023-01-29T00:16:49.621Z,6.20
2023-01-29T00:19:16.588Z,6.19
2023-01-29T00:21:43.633Z,6.19
2023-01-29T00:24:10.784Z,6.20
2023-01-29T00:26:39.312Z,6.18
2023-01-29T00:29:06.448Z,6.18
2023-01-29T00:31:33.231Z,6.16
2023-01-29T00:34:00.133Z,6.17
2023-01-29T00:36:27.694Z,6.18
2023-01-29T00:38:58.881Z,6.20
2023-01-29T00:41:49.774Z,6.21
2023-01-29T00:44:35.748Z,6.21
2023-01-29T00:47:04.069Z,6.20
2023-01-29T00:49:38.299Z,6.19
2023-01-29T00:52:23.944Z,6.21
2023-01-29T00:54:51.853Z,6.20
2023-01-29T00:57:18.624Z,6.20
2023-01-29T00:59:45.496Z,6.20
2023-01-29T01:02:30.817Z,6.19
2023-01-29T01:04:58.123Z,6.18
2023-01-29T01:07:24.790Z,6.19
2023-01-29T01:10:10.328Z,6.17
2023-01-29T01:12:37.064Z,6.17
2023-01-29T01:15:04.073Z,6.16
2023-01-29T01:17:31.235Z,6.14
2023-01-29T01:19:58.034Z,6.13
2023-01-29T01:22:24.768Z,6.11
2023-01-29T01:24:51.702Z,6.12
2023-01-29T01:27:19.736Z,6.12
2023-01-29T01:29:46.913Z,6.11
2023-01-29T01:32:14.476Z,6.10
2023-01-29T01:34:41.523Z,6.07
2023-01-29T01:37:08.192Z,6.04
2023-01-29T01:39:34.976Z,6.01
2023-01-29T01:42:01.990Z,5.99
2023-01-29T01:44:53.623Z,5.98
2023-01-29T01:47:38.050Z,5.96
2023-01-29T01:50:13.399Z,5.96
2023-01-29T01:52:47.081Z,5.98
2023-01-29T01:55:17.831Z,6.00
2023-01-29T01:57:48.006Z,6.00
2023-01-29T02:00:18.836Z,6.02
2023-01-29T02:03:05.391Z,6.02
2023-01-29T02:05:53.029Z,6.03
2023-01-29T02:08:56.632Z,6.02
2023-01-29T02:11:24.363Z,6.00
2023-01-29T02:13:53.673Z,5.98
2023-01-29T02:16:22.113Z,5.95
2023-01-29T02:18:50.204Z,5.93
2023-01-29T02:21:41.956Z,5.91
2023-01-29T02:24:32.040Z,5.91
2023-01-29T02:27:20.006Z,5.93
2023-01-29T02:30:18.618Z,5.91
2023-01-29T02:32:59.588Z,5.91
2023-01-29T02:35:32.415Z,5.90
2023-01-29T02:38:21.745Z,5.89
2023-01-29T02:40:57.923Z,5.87
2023-01-29T02:43:41.845Z,5.87
2023-01-29T02:46:26.749Z,5.87
2023-01-29T02:49:24.940Z,5.86
2023-01-29T02:52:20.313Z,5.85
2023-01-29T02:55:14.080Z,5.86
2023-01-29T02:57:44.943Z,5.88
2023-01-29T03:00:18.033Z,5.87
2023-01-29T03:03:05.474Z,5.88
2023-01-29T03:05:55.042Z,5.90
2023-01-29T03:08:37.392Z,5.89
2023-01-29T03:11:07.413Z,5.88
2023-01-29T03:13:49.967Z,5.87
2023-01-29T03:16:22.986Z,5.87
2023-01-29T03:18:52.361Z,5.85
2023-01-29T03:21:48.032Z,5.80
2023-01-29T03:24:37.893Z,5.72
2023-01-29T03:27:29.490Z,5.63
2023-01-29T03:30:17.256Z,5.58
2023-01-29T03:32:46.987Z,5.55
2023-01-29T03:35:21.275Z,5.52
2023-01-29T03:37:49.409Z,5.51
2023-01-29T03:40:16.656Z,5.53
2023-01-29T03:42:53.169Z,5.52
2023-01-29T03:45:42.820Z,5.52
2023-01-29T03:48:24.909Z,5.52
2023-01-29T03:51:06.802Z,5.51
2023-01-29T03:54:06.441Z,5.50
2023-01-29T03:57:06.827Z,5.53
2023-01-29T03:59:59.821Z,5.55
2023-01-29T04:02:38.978Z,5.55
2023-01-29T04:05:12.179Z,5.53
2023-01-29T04:07:42.816Z,5.43
2023-01-29T04:10:18.757Z,5.33
2023-01-29T04:12:45.430Z,5.24
2023-01-29T04:15:15.847Z,5.19
2023-01-29T04:17:49.948Z,5.12
2023-01-29T04:20:17.186Z,5.09
2023-01-29T04:22:50.332Z,5.10
2023-01-29T04:25:26.690Z,5.11
2023-01-29T04:28:15.678Z,5.12
2023-01-29T04:30:55.235Z,5.08
2023-01-29T04:33:28.663Z,5.02
2023-01-29T04:36:22.086Z,4.99
2023-01-29T04:38:58.181Z,4.94
2023-01-29T04:41:33.150Z,4.92
2023-01-29T04:44:03.611Z,4.92
2023-01-29T04:46:46.931Z,4.92
2023-01-29T04:49:14.227Z,4.91
2023-01-29T04:51:51.447Z,4.91
2023-01-29T04:54:48.257Z,4.88
2023-01-29T04:57:25.489Z,4.88
2023-01-29T05:00:08.856Z,4.87
2023-01-29T05:02:39.414Z,4.83
2023-01-29T05:05:08.506Z,4.82
2023-01-29T05:07:38.556Z,4.83
2023-01-29T05:10:09.178Z,4.81
2023-01-29T05:12:37.968Z,4.78
2023-01-29T05:15:10.740Z,4.80
2023-01-29T05:17:37.553Z,4.81
2023-01-29T05:20:04.673Z,4.80
2023-01-29T05:22:31.753Z,4.84
2023-01-29T05:24:58.451Z,4.85
2023-01-29T05:27:53.190Z,4.88
2023-01-29T05:30:19.945Z,4.90
2023-01-29T05:32:46.710Z,4.92
2023-01-29T05:35:14.187Z,4.93
2023-01-29T05:37:41.064Z,4.97
2023-01-29T05:40:09.742Z,5.01
2023-01-29T05:42:39.049Z,5.06
2023-01-29T05:45:06.282Z,5.13
2023-01-29T05:47:32.940Z,5.19
2023-01-29T05:49:59.787Z,5.25
2023-01-29T05:52:26.560Z,5.31
2023-01-29T05:54:53.215Z,5.35
2023-01-29T05:57:20.036Z,5.39
2023-01-29T05:59:46.976Z,5.41
2023-01-29T06:02:13.620Z,5.41
2023-01-29T06:04:40.386Z,5.40
2023-01-29T06:07:07.098Z,5.40
2023-01-29T06:09:33.771Z,5.41
2023-01-29T06:12:00.547Z,5.39
2023-01-29T06:14:27.335Z,5.39
2023-01-29T06:16:54.001Z,5.38
2023-01-29T06:19:21.121Z,5.35
2023-01-29T06:21:47.799Z,5.36
2023-01-29T06:24:14.610Z,5.35
2023-01-29T06:26:41.651Z,5.35
2023-01-29T06:29:08.426Z,5.37
2023-01-29T06:31:39.519Z,5.36
2023-01-29T06:34:09.821Z,5.38
2023-01-29T06:36:36.518Z,5.38
2023-01-29T06:39:04.486Z,5.39
2023-01-29T06:41:31.266Z,5.39
2023-01-29T06:43:57.964Z,5.37
2023-01-29T06:46:24.655Z,5.39
2023-01-29T06:48:51.427Z,5.40
2023-01-29T06:51:18.208Z,5.40
2023-01-29T06:53:46.498Z,5.40
2023-01-29T06:56:13.690Z,5.40
2023-01-29T06:58:40.523Z,5.42
2023-01-29T07:01:22.136Z,5.44
2023-01-29T07:03:56.185Z,5.45
2023-01-29T07:06:31.132Z,5.46
2023-01-29T07:08:58.015Z,5.47
2023-01-29T07:11:24.814Z,5.44
2023-01-29T07:13:51.542Z,5.45
2023-01-29T07:16:19.500Z,5.46
2023-01-29T07:18:46.624Z,5.48
2023-01-29T07:21:13.360Z,5.48
2023-01-29T07:23:40.127Z,5.49
2023-01-29T07:26:07.283Z,5.48
2023-01-29T07:28:38.202Z,5.47
2023-01-29T07:31:05.871Z,5.42
2023-01-29T07:33:33.260Z,5.38
2023-01-29T07:36:00.024Z,5.36
2023-01-29T07:38:27.028Z,5.35
2023-01-29T07:40:53.991Z,5.35
2023-01-29T07:43:21.001Z,5.37
2023-01-29T07:45:48.054Z,5.39
2023-01-29T07:48:14.757Z,5.38
2023-01-29T07:50:41.569Z,5.38
2023-01-29T07:53:15.354Z,5.39
2023-01-29T07:55:45.177Z,5.40
2023-01-29T07:58:11.952Z,5.42
2023-01-29T08:00:39.489Z,5.45
2023-01-29T08:03:09.745Z,5.50
2023-01-29T08:05:36.693Z,5.51
2023-01-29T08:08:07.346Z,5.53
2023-01-29T08:10:35.926Z,5.56
2023-01-29T08:13:03.765Z,5.57
2023-01-29T08:15:31.299Z,5.56
2023-01-29T08:17:58.618Z,5.57
2023-01-29T08:20:26.304Z,5.60
2023-01-29T08:23:04.630Z,5.66
2023-01-29T08:25:32.053Z,5.68
2023-01-29T08:27:59.800Z,5.69
2023-01-29T08:30:29.156Z,5.72
2023-01-29T08:32:55.891Z,5.75
2023-01-29T08:35:22.809Z,5.78
2023-01-29T08:37:58.525Z,5.80
2023-01-29T08:40:26.056Z,5.85
2023-01-29T08:42:52.782Z,5.86
2023-01-29T08:45:19.675Z,5.89
2023-01-29T08:47:48.033Z,5.90
2023-01-29T08:50:16.261Z,5.92
2023-01-29T08:52:43.939Z,5.95
2023-01-29T08:55:11.693Z,5.97
2023-01-29T08:57:39.536Z,6.01
2023-01-29T09:00:09.007Z,6.02
2023-01-29T09:02:35.855Z,6.04
2023-01-29T09:05:02.522Z,6.05
2023-01-29T09:07:29.844Z,6.08
2023-01-29T09:09:56.694Z,6.09
2023-01-29T09:12:23.410Z,6.12
2023-01-29T09:14:50.423Z,6.16
2023-01-29T09:17:17.188Z,6.21
2023-01-29T09:19:43.972Z,6.23
2023-01-29T09:22:11.979Z,6.27
2023-01-29T09:24:38.896Z,6.30
2023-01-29T09:27:06.323Z,6.33
2023-01-29T09:29:35.734Z,6.38
2023-01-29T09:32:04.866Z,6.38
2023-01-29T09:34:31.571Z,6.40
2023-01-29T09:36:58.626Z,6.42
2023-01-29T09:39:25.400Z,6.46
2023-01-29T09:42:28.482Z,6.46
2023-01-29T09:45:17.696Z,6.52
2023-01-29T09:47:45.095Z,6.53
2023-01-29T09:50:43.673Z,6.55
2023-01-29T09:53:29.091Z,6.56
2023-01-29T09:56:18.185Z,6.56
2023-01-29T09:58:45.191Z,6.58
2023-01-29T10:01:33.927Z,6.56
2023-01-29T10:04:45.565Z,6.56
2023-01-29T10:07:42.897Z,6.57
2023-01-29T10:10:27.261Z,6.54
2023-01-29T10:13:01.624Z,6.52
2023-01-29T10:15:43.359Z,6.53
2023-01-29T10:18:25.407Z,6.55
2023-01-29T10:21:24.523Z,6.58
2023-01-29T10:23:58.057Z,6.59
2023-01-29T10:26:28.648Z,6.60
2023-01-29T10:29:00.659Z,6.62
2023-01-29T10:31:33.516Z,6.63
2023-01-29T10:34:02.953Z,6.70
2023-01-29T10:36:45.924Z,6.75
2023-01-29T10:39:17.714Z,6.81
2023-01-29T10:42:19.912Z,6.91
2023-01-29T10:45:09.589Z,6.97
2023-01-29T10:47:57.604Z,6.99
2023-01-29T10:50:24.347Z,6.99
2023-01-29T10:53:15.831Z,7.00
2023-01-29T10:55:57.494Z,7.03
2023-01-29T10:58:36.350Z,7.03
2023-01-29T11:01:03.189Z,7.04
2023-01-29T11:03:32.146Z,7.11
2023-01-29T11:06:04.572Z,7.13
2023-01-29T11:08:56.790Z,7.13
2023-01-29T11:11:41.306Z,7.14
2023-01-29T11:14:15.057Z,7.14
2023-01-29T11:16:47.745Z,7.12
2023-01-29T11:19:15.494Z,7.11
2023-01-29T11:21:59.765Z,7.10
2023-01-29T11:24:27.704Z,7.10
2023-01-29T11:27:14.985Z,7.10
2023-01-29T11:29:48.346Z,7.09
2023-01-29T11:32:26.383Z,7.11
2023-01-29T11:35:00.569Z,7.12
2023-01-29T11:37:38.658Z,7.13
2023-01-29T11:40:24.323Z,7.18
2023-01-29T11:42:53.991Z,7.25
2023-01-29T11:45:20.647Z,7.30
2023-01-29T11:47:54.001Z,7.34
2023-01-29T11:50:25.290Z,7.41
2023-01-29T11:52:52.175Z,7.46
2023-01-29T11:55:31.191Z,7.53
2023-01-29T11:58:18.514Z,7.64
2023-01-29T12:00:52.219Z,7.68
2023-01-29T12:03:40.159Z,7.83
2023-01-29T12:06:23.598Z,8.04
2023-01-29T12:09:01.493Z,8.23
2023-01-29T12:11:33.887Z,8.30
2023-01-29T12:14:06.596Z,8.32
2023-01-29T12:17:10.793Z,8.33
2023-01-29T12:19:55.325Z,8.32
2023-01-29T12:22:25.432Z,8.29
2023-01-29T12:25:04.623Z,8.29
2023-01-29T12:28:04.360Z,8.31
2023-01-29T12:30:46.253Z,8.28
2023-01-29T12:33:32.356Z,8.35
2023-01-29T12:36:17.723Z,8.44
2023-01-29T12:38:45.755Z,8.57
2023-01-29T12:41:36.662Z,8.66
2023-01-29T12:44:12.014Z,8.81
2023-01-29T12:46:43.468Z,8.99
2023-01-29T12:49:17.028Z,9.07
2023-01-29T12:51:57.395Z,9.17
2023-01-29T12:54:45.171Z,9.23
2023-01-29T12:57:34.781Z,9.34
2023-01-29T13:00:12.285Z,9.43
2023-01-29T13:02:50.072Z,9.66
2023-01-29T13:05:31.301Z,9.84
2023-01-29T13:08:06.104Z,9.91
2023-01-29T13:10:43.227Z,9.87
2023-01-29T13:14:07.861Z,9.77
2023-01-29T13:16:41.900Z,9.79
2023-01-29T13:19:29.695Z,9.75
2023-01-29T13:21:59.914Z,9.75
2023-01-29T13:24:38.514Z,9.81
2023-01-29T13:27:06.186Z,9.82
2023-01-29T13:29:33.923Z,9.86
2023-01-29T13:32:03.636Z,9.90
2023-01-29T13:34:33.838Z,9.95
2023-01-29T13:37:11.315Z,9.97
2023-01-29T13:39:48.865Z,9.97
2023-01-29T13:42:25.195Z,9.95
2023-01-29T13:44:56.493Z,10.04
2023-01-29T13:47:32.322Z,10.19
2023-01-29T13:50:08.413Z,10.25
2023-01-29T13:53:02.327Z,10.34
2023-01-29T13:55:35.214Z,10.49
2023-01-29T13:58:18.702Z,10.50
2023-01-29T14:00:45.534Z,10.35
2023-01-29T14:03:12.177Z,10.33
2023-01-29T14:05:42.967Z,10.40
2023-01-29T14:08:09.711Z,10.49
2023-01-29T14:10:39.906Z,10.35
2023-01-29T14:13:18.758Z,10.19
2023-01-29T14:16:06.533Z,10.22
2023-01-29T14:18:36.126Z,10.30
2023-01-29T14:21:05.699Z,10.43
2023-01-29T14:23:49.744Z,10.47
2023-01-29T14:26:47.484Z,10.58
2023-01-29T14:29:34.969Z,10.59
2023-01-29T14:32:07.723Z,10.69
2023-01-29T14:34:41.971Z,10.79
2023-01-29T14:37:22.463Z,10.73
2023-01-29T14:39:52.175Z,10.57
2023-01-29T14:42:22.739Z,10.42
2023-01-29T14:44:59.659Z,10.35
2023-01-29T14:47:38.412Z,10.37
2023-01-29T14:50:30.161Z,10.48
2023-01-29T14:53:15.673Z,10.37
2023-01-29T14:55:44.346Z,10.30
2023-01-29T14:58:19.030Z,10.20
2023-01-29T15:00:51.822Z,10.12
2023-01-29T15:03:46.324Z,10.04
2023-01-29T15:06:20.460Z,10.00
2023-01-29T15:08:55.841Z,9.95
2023-01-29T15:12:14.487Z,9.90
2023-01-29T15:14:57.026Z,9.87
2023-01-29T15:17:33.234Z,9.85
2023-01-29T15:20:00.014Z,9.84
2023-01-29T15:22:29.103Z,9.98
2023-01-29T15:25:07.767Z,10.04
2023-01-29T15:27:34.954Z,10.05
2023-01-29T15:30:06.091Z,10.01
2023-01-29T15:32:39.376Z,9.93
2023-01-29T15:35:10.294Z,9.90
2023-01-29T15:37:37.767Z,9.91
2023-01-29T15:40:12.426Z,9.93
2023-01-29T15:42:46.733Z,9.97
2023-01-29T15:45:32.118Z,10.03
2023-01-29T15:48:03.825Z,10.04
2023-01-29T15:50:31.628Z,10.07
2023-01-29T15:53:03.991Z,10.14
2023-01-29T15:55:31.915Z,10.16
2023-01-29T15:58:00.272Z,10.15
2023-01-29T16:00:29.891Z,10.14
2023-01-29T16:02:59.207Z,10.12
2023-01-29T16:05:29.536Z,10.12
2023-01-29T16:07:57.746Z,10.11
2023-01-29T16:10:30.577Z,10.09
2023-01-29T16:12:57.482Z,10.07
2023-01-29T16:15:31.798Z,10.05
2023-01-29T16:18:00.347Z,10.03
2023-01-29T16:20:38.105Z,10.00
2023-01-29T16:23:06.422Z,9.98
2023-01-29T16:25:37.245Z,9.95
2023-01-29T16:28:07.486Z,9.90
2023-01-29T16:30:34.259Z,9.85
2023-01-29T16:33:06.106Z,9.81
2023-01-29T16:35:34.286Z,9.78
2023-01-29T16:38:07.940Z,9.74
2023-01-29T16:40:38.487Z,9.73
2023-01-29T16:43:17.167Z,9.73
2023-01-29T16:46:26.500Z,9.73
2023-01-29T16:48:54.058Z,9.77
2023-01-29T16:51:30.385Z,9.78
2023-01-29T16:54:06.489Z,9.76
2023-01-29T16:56:34.829Z,9.77
2023-01-29T16:59:04.591Z,9.77
2023-01-29T17:01:32.846Z,9.75
2023-01-29T17:04:13.927Z,9.76
2023-01-29T17:06:44.527Z,9.75
2023-01-29T17:09:38.357Z,9.72
2023-01-29T17:12:08.151Z,9.67
2023-01-29T17:14:36.594Z,9.64
2023-01-29T17:17:06.483Z,9.58
2023-01-29T17:19:33.630Z,9.56
2023-01-29T17:22:04.707Z,9.57
2023-01-29T17:24:31.880Z,9.62
2023-01-29T17:27:00.947Z,9.65
2023-01-29T17:29:31.251Z,9.68
2023-01-29T17:32:00.490Z,9.69
2023-01-29T17:34:27.383Z,9.71
2023-01-29T17:36:54.067Z,9.69
2023-01-29T17:39:24.317Z,9.68
2023-01-29T17:41:56.231Z,9.65
2023-01-29T17:44:23.211Z,9.62
2023-01-29T17:46:50.281Z,9.57
2023-01-29T17:49:25.904Z,9.56
2023-01-29T17:51:54.006Z,9.59
2023-01-29T17:54:21.872Z,9.62
2023-01-29T17:56:49.155Z,9.68
2023-01-29T17:59:24.330Z,9.72
2023-01-29T18:01:51.455Z,9.73
2023-01-29T18:04:18.295Z,9.76
2023-01-29T18:06:47.578Z,9.78
2023-01-29T18:09:16.068Z,9.79
2023-01-29T18:11:43.479Z,9.80
2023-01-29T18:14:14.222Z,9.80
2023-01-29T18:16:43.216Z,9.81
2023-01-29T18:19:28.577Z,9.81
2023-01-29T18:21:55.403Z,9.80
2023-01-29T18:24:22.133Z,9.80
2023-01-29T18:26:49.801Z,9.80
2023-01-29T18:29:16.582Z,9.77
2023-01-29T18:31:43.391Z,9.79
2023-01-29T18:34:10.402Z,9.77
2023-01-29T18:36:37.243Z,9.75
2023-01-29T18:39:04.179Z,9.74
2023-01-29T18:41:30.971Z,9.75
2023-01-29T18:43:57.709Z,9.74
2023-01-29T18:46:24.419Z,9.77
2023-01-29T18:48:51.510Z,9.77
2023-01-29T18:51:24.158Z,9.77
2023-01-29T18:53:51.909Z,9.78
2023-01-29T18:56:19.125Z,9.79
2023-01-29T18:58:52.151Z,9.80
2023-01-29T19:01:22.580Z,9.79
2023-01-29T19:03:49.360Z,9.80
2023-01-29T19:06:16.077Z,9.80
2023-01-29T19:08:44.074Z,9.79
2023-01-29T19:11:12.656Z,9.78
2023-01-29T19:13:40.548Z,9.77
2023-01-29T19:16:09.646Z,9.77
2023-01-29T19:18:36.652Z,9.77
2023-01-29T19:21:08.250Z,9.76
2023-01-29T19:23:35.256Z,9.75
2023-01-29T19:26:02.332Z,9.75
2023-01-29T19:28:29.166Z,9.72
2023-01-29T19:31:00.366Z,9.71
2023-01-29T19:33:27.885Z,9.67
2023-01-29T19:36:02.747Z,9.65
2023-01-29T19:38:33.477Z,9.64
2023-01-29T19:41:00.634Z,9.62
2023-01-29T19:43:33.452Z,9.61
2023-01-29T19:46:00.677Z,9.61
2023-01-29T19:48:28.163Z,9.59
2023-01-29T19:50:57.412Z,9.58
2023-01-29T19:53:24.953Z,9.60
2023-01-29T19:56:05.568Z,9.59
2023-01-29T19:58:33.071Z,9.59
2023-01-29T20:01:02.589Z,9.58
2023-01-29T20:03:30.257Z,9.57
2023-01-29T20:06:03.000Z,9.57
2023-01-29T20:08:37.808Z,9.50
2023-01-29T20:11:05.695Z,9.43
2023-01-29T20:13:33.459Z,9.39
2023-01-29T20:16:05.686Z,9.36
2023-01-29T20:19:32.162Z,9.30
2023-01-29T20:21:59.200Z,9.26
2023-01-29T20:24:26.538Z,9.23
2023-01-29T20:26:53.210Z,9.20
2023-01-29T20:29:20.120Z,9.18
2023-01-29T20:31:46.902Z,9.15
2023-01-29T20:34:13.567Z,9.14
2023-01-29T20:36:40.608Z,9.11
2023-01-29T20:39:07.312Z,9.08
2023-01-29T20:41:34.048Z,9.02
2023-01-29T20:44:01.176Z,8.96
2023-01-29T20:46:28.197Z,8.89
2023-01-29T20:48:55.855Z,8.86
2023-01-29T20:51:22.706Z,8.81
2023-01-29T20:53:49.408Z,8.75
2023-01-29T20:56:17.633Z,8.70
2023-01-29T20:58:47.133Z,8.68
2023-01-29T21:01:19.293Z,8.67
2023-01-29T21:03:47.228Z,8.68
2023-01-29T21:06:14.709Z,8.70
2023-01-29T21:08:42.096Z,8.68
2023-01-29T21:11:10.273Z,8.63
2023-01-29T21:13:37.352Z,8.61
2023-01-29T21:16:04.674Z,8.58
2023-01-29T21:18:32.552Z,8.52
2023-01-29T21:20:59.271Z,8.44
2023-01-29T21:23:25.968Z,8.39
2023-01-29T21:25:52.741Z,8.36
2023-01-29T21:28:19.398Z,8.35
2023-01-29T21:30:46.528Z,8.35
2023-01-29T21:33:13.561Z,8.37
2023-01-29T21:35:40.300Z,8.37
2023-01-29T21:38:06.972Z,8.33
2023-01-29T21:40:33.949Z,8.27
2023-01-29T21:43:12.824Z,8.17
2023-01-29T21:45:40.695Z,8.02
2023-01-29T21:48:08.200Z,7.89
2023-01-29T21:50:35.461Z,7.79
2023-01-29T21:53:02.896Z,7.68
2023-01-29T21:55:30.149Z,7.59
2023-01-29T21:57:56.845Z,7.52
2023-01-29T22:00:23.872Z,7.47
2023-01-29T22:02:51.394Z,7.39
2023-01-29T22:05:20.165Z,7.33
2023-01-29T22:07:48.741Z,7.29
2023-01-29T22:10:19.905Z,7.25
2023-01-29T22:12:47.544Z,7.22
2023-01-29T22:15:15.467Z,7.19
2023-01-29T22:17:42.482Z,7.13
2023-01-29T22:20:13.672Z,7.10
2023-01-29T22:22:40.694Z,7.10
2023-01-29T22:25:07.887Z,7.16
2023-01-29T22:27:34.812Z,7.22
2023-01-29T22:30:03.699Z,7.29
2023-01-29T22:32:32.404Z,7.28
2023-01-29T22:34:59.191Z,7.22
2023-01-29T22:37:25.998Z,7.19
2023-01-29T22:39:52.780Z,7.18
2023-01-29T22:42:20.790Z,7.21
2023-01-29T22:44:48.748Z,7.24
2023-01-29T22:47:15.903Z,7.21
2023-01-29T22:49:44.678Z,7.11
2023-01-29T22:52:11.773Z,7.04
2023-01-29T22:54:43.709Z,6.96
2023-01-29T22:57:12.288Z,6.91
2023-01-29T22:59:39.433Z,6.84
2023-01-29T23:02:06.861Z,6.80
2023-01-29T23:04:34.024Z,6.75
2023-01-29T23:07:00.797Z,6.71
2023-01-29T23:09:27.657Z,6.67
2023-01-29T23:11:54.438Z,6.65
2023-01-29T23:14:21.548Z,6.63
2023-01-29T23:16:48.302Z,6.61
2023-01-29T23:19:15.011Z,6.57
2023-01-29T23:21:41.838Z,6.60
2023-01-29T23:24:09.330Z,6.68
2023-01-29T23:26:54.438Z,6.71
2023-01-29T23:29:21.419Z,6.80
2023-01-29T23:31:48.355Z,6.84
2023-01-29T23:34:15.644Z,6.84
2023-01-29T23:36:42.797Z,6.89
2023-01-29T23:39:10.018Z,6.93
2023-01-29T23:41:37.266Z,6.96
2023-01-29T23:44:04.466Z,7.02
2023-01-29T23:46:31.356Z,7.07
2023-01-29T23:48:58.387Z,7.09
2023-01-29T23:51:25.603Z,7.13
2023-01-29T23:53:52.300Z,7.11
2023-01-29T23:56:19.354Z,7.00
2023-01-29T23:58:46.407Z,6.88
